createdAt,value
2022-12-27T00:00:50.799Z,10.17
2022-12-27T00:01:50.811Z,10.09
2022-12-27T00:02:50.797Z,10.29
2022-12-27T00:03:50.757Z,10.42
2022-12-27T00:04:50.761Z,10.17
2022-12-27T00:05:50.743Z,9.93
2022-12-27T00:06:50.736Z,9.94
2022-12-27T00:07:50.731Z,10.04
2022-12-27T00:08:50.722Z,10.08
2022-12-27T00:09:50.737Z,9.94
2022-12-27T00:10:50.720Z,9.91
2022-12-27T00:11:56.273Z,9.90
2022-12-27T00:12:50.713Z,9.96
2022-12-27T00:13:50.736Z,10.02
2022-12-27T00:14:50.708Z,10.04
2022-12-27T00:15:50.723Z,10.11
2022-12-27T00:16:50.758Z,10.17
2022-12-27T00:17:50.703Z,10.11
2022-12-27T00:18:50.695Z,10.04
2022-12-27T00:19:50.699Z,10.04
2022-12-27T00:20:50.708Z,10.05
2022-12-27T00:21:50.688Z,10.08
2022-12-27T00:22:50.686Z,10.09
2022-12-27T00:23:50.693Z,10.04
2022-12-27T00:24:50.681Z,9.94
2022-12-27T00:25:50.678Z,9.97
2022-12-27T00:26:50.680Z,9.74
2022-12-27T00:27:50.679Z,9.69
2022-12-27T00:28:50.677Z,9.61
2022-12-27T00:29:50.664Z,9.65
2022-12-27T00:30:50.656Z,9.61
2022-12-27T00:31:50.883Z,9.42
2022-12-27T00:32:50.661Z,9.47
2022-12-27T00:33:50.659Z,9.46
2022-12-27T00:34:50.649Z,9.31
2022-12-27T00:35:50.652Z,9.31
2022-12-27T00:36:50.667Z,9.35
2022-12-27T00:37:50.649Z,9.29
2022-12-27T00:38:50.651Z,9.21
2022-12-27T00:39:50.637Z,9.23
2022-12-27T00:40:50.628Z,9.28
2022-12-27T00:41:50.655Z,9.23
2022-12-27T00:42:50.628Z,9.24
2022-12-27T00:43:50.625Z,9.31
2022-12-27T00:44:50.617Z,9.38
2022-12-27T00:45:50.698Z,9.38
2022-12-27T00:46:50.615Z,9.35
2022-12-27T00:47:50.611Z,9.21
2022-12-27T00:48:50.620Z,9.35
2022-12-27T00:49:50.609Z,9.29
2022-12-27T00:50:50.594Z,9.42
2022-12-27T00:51:50.620Z,9.32
2022-12-27T00:52:50.613Z,9.21
2022-12-27T00:53:50.591Z,9.31
2022-12-27T00:54:50.588Z,9.29
2022-12-27T00:55:50.585Z,9.31
2022-12-27T00:56:50.580Z,9.24
2022-12-27T00:57:50.581Z,9.24
2022-12-27T00:58:50.573Z,9.23
2022-12-27T00:59:50.574Z,9.05
2022-12-27T01:00:50.588Z,9.05
2022-12-27T01:01:50.713Z,9.13
2022-12-27T01:02:50.568Z,9.21
2022-12-27T01:03:50.614Z,9.28
2022-12-27T01:04:50.559Z,9.15
2022-12-27T01:05:50.555Z,9.04
2022-12-27T01:06:50.550Z,8.98
2022-12-27T01:07:50.543Z,9.21
2022-12-27T01:08:50.566Z,9.11
2022-12-27T01:09:50.536Z,9.08
2022-12-27T01:10:50.539Z,8.89
2022-12-27T01:11:50.528Z,8.95
2022-12-27T01:12:50.528Z,9.01
2022-12-27T01:13:50.520Z,8.86
2022-12-27T01:14:50.526Z,8.92
2022-12-27T01:15:50.514Z,8.87
2022-12-27T01:16:50.578Z,8.96
2022-12-27T01:17:50.509Z,8.83
2022-12-27T01:18:50.520Z,8.89
2022-12-27T01:19:50.499Z,8.84
2022-12-27T01:20:50.499Z,8.71
2022-12-27T01:21:50.497Z,8.74
2022-12-27T01:22:50.493Z,8.71
2022-12-27T01:23:50.486Z,8.84
2022-12-27T01:24:50.521Z,8.77
2022-12-27T01:25:50.480Z,8.76
2022-12-27T01:26:50.500Z,8.86
2022-12-27T01:27:50.476Z,8.86
2022-12-27T01:28:50.486Z,8.77
2022-12-27T01:29:50.467Z,8.70
2022-12-27T01:30:50.468Z,8.70
2022-12-27T01:31:50.507Z,8.77
2022-12-27T01:32:50.478Z,8.63
2022-12-27T01:33:50.453Z,8.65
2022-12-27T01:34:50.455Z,8.68
2022-12-27T01:35:50.445Z,8.70
2022-12-27T01:36:50.449Z,8.70
2022-12-27T01:37:50.439Z,8.62
2022-12-27T01:38:50.464Z,8.65
2022-12-27T01:39:50.433Z,8.58
2022-12-27T01:40:50.445Z,8.63
2022-12-27T01:41:50.419Z,8.61
2022-12-27T01:42:50.422Z,8.73
2022-12-27T01:43:50.414Z,8.56
2022-12-27T01:44:50.442Z,8.41
2022-12-27T01:45:50.431Z,8.50
2022-12-27T01:46:50.413Z,8.38
2022-12-27T01:47:50.406Z,8.56
2022-12-27T01:48:50.403Z,8.56
2022-12-27T01:49:50.398Z,8.59
2022-12-27T01:50:50.397Z,8.66
2022-12-27T01:51:50.388Z,8.63
2022-12-27T01:52:50.395Z,8.55
2022-12-27T01:53:50.382Z,8.48
2022-12-27T01:54:50.376Z,8.40
2022-12-27T01:55:50.376Z,8.45
2022-12-27T01:56:50.399Z,8.44
2022-12-27T01:57:50.365Z,8.61
2022-12-27T01:58:50.363Z,8.56
2022-12-27T01:59:50.359Z,8.52
2022-12-27T02:00:50.444Z,8.38
2022-12-27T02:01:50.477Z,8.37
2022-12-27T02:02:50.445Z,8.36
2022-12-27T02:03:50.349Z,8.26
2022-12-27T02:04:50.338Z,8.33
2022-12-27T02:05:50.332Z,8.33
2022-12-27T02:06:50.330Z,8.30
2022-12-27T02:07:50.333Z,8.15
2022-12-27T02:08:50.321Z,8.12
2022-12-27T02:09:50.317Z,8.10
2022-12-27T02:10:50.329Z,8.08
2022-12-27T02:11:50.307Z,8.23
2022-12-27T02:12:50.336Z,8.29
2022-12-27T02:13:50.301Z,8.23
2022-12-27T02:14:50.303Z,8.07
2022-12-27T02:15:50.292Z,8.15
2022-12-27T02:16:50.331Z,8.26
2022-12-27T02:17:50.305Z,8.23
2022-12-27T02:18:50.288Z,8.11
2022-12-27T02:19:50.276Z,8.08
2022-12-27T02:20:50.279Z,8.12
2022-12-27T02:21:50.275Z,8.08
2022-12-27T02:22:50.271Z,8.19
2022-12-27T02:23:50.261Z,8.26
2022-12-27T02:24:50.267Z,8.22
2022-12-27T02:25:50.255Z,8.12
2022-12-27T02:26:50.252Z,8.01
2022-12-27T02:27:50.259Z,7.97
2022-12-27T02:28:50.301Z,8.12
2022-12-27T02:29:50.235Z,8.02
2022-12-27T02:30:50.306Z,8.19
2022-12-27T02:31:50.248Z,8.12
2022-12-27T02:32:50.236Z,8.12
2022-12-27T02:33:50.234Z,8.11
2022-12-27T02:34:50.223Z,8.05
2022-12-27T02:35:50.213Z,8.00
2022-12-27T02:36:50.213Z,8.08
2022-12-27T02:37:50.225Z,8.05
2022-12-27T02:38:50.206Z,8.04
2022-12-27T02:39:50.197Z,8.05
2022-12-27T02:40:50.198Z,8.10
2022-12-27T02:41:50.216Z,8.12
2022-12-27T02:42:50.191Z,8.10
2022-12-27T02:43:50.235Z,8.11
2022-12-27T02:44:50.205Z,8.08
2022-12-27T02:45:50.264Z,8.12
2022-12-27T02:46:50.175Z,8.11
2022-12-27T02:47:50.176Z,8.05
2022-12-27T02:48:50.168Z,8.05
2022-12-27T02:49:50.158Z,8.08
2022-12-27T02:50:50.167Z,8.04
2022-12-27T02:51:50.160Z,8.07
2022-12-27T02:52:50.159Z,8.07
2022-12-27T02:53:50.162Z,7.92
2022-12-27T02:54:50.145Z,8.00
2022-12-27T02:55:50.137Z,8.08
2022-12-27T02:56:50.133Z,7.95
2022-12-27T02:57:50.128Z,7.92
2022-12-27T02:58:50.123Z,8.00
2022-12-27T02:59:50.117Z,8.04
2022-12-27T03:00:50.139Z,7.95
2022-12-27T03:01:50.187Z,7.95
2022-12-27T03:02:50.142Z,7.98
2022-12-27T03:03:50.104Z,8.00
2022-12-27T03:04:50.098Z,7.93
2022-12-27T03:05:50.094Z,8.00
2022-12-27T03:06:50.097Z,8.02
2022-12-27T03:07:50.098Z,7.98
2022-12-27T03:08:50.087Z,8.00
2022-12-27T03:09:50.079Z,8.08
2022-12-27T03:10:50.076Z,8.02
2022-12-27T03:11:50.066Z,8.15
2022-12-27T03:12:50.071Z,7.98
2022-12-27T03:13:50.057Z,7.97
2022-12-27T03:14:50.059Z,7.86
2022-12-27T03:15:50.074Z,7.97
2022-12-27T03:16:50.076Z,7.92
2022-12-27T03:17:50.045Z,7.93
2022-12-27T03:18:50.051Z,7.93
2022-12-27T03:19:50.043Z,7.87
2022-12-27T03:20:50.036Z,7.87
2022-12-27T03:21:50.028Z,7.95
2022-12-27T03:22:50.035Z,7.83
2022-12-27T03:23:50.018Z,7.92
2022-12-27T03:24:50.031Z,7.86
2022-12-27T03:25:50.011Z,7.82
2022-12-27T03:26:50.011Z,7.85
2022-12-27T03:27:50.007Z,7.75
2022-12-27T03:28:50.002Z,7.87
2022-12-27T03:29:49.990Z,7.72
2022-12-27T03:30:50.016Z,7.79
2022-12-27T03:31:49.986Z,7.72
2022-12-27T03:32:50.004Z,7.71
2022-12-27T03:33:49.980Z,7.75
2022-12-27T03:34:49.977Z,7.75
2022-12-27T03:35:49.966Z,7.75
2022-12-27T03:36:49.972Z,7.72
2022-12-27T03:37:49.958Z,7.80
2022-12-27T03:38:49.965Z,7.79
2022-12-27T03:39:49.960Z,7.82
2022-12-27T03:40:49.956Z,7.72
2022-12-27T03:41:49.945Z,7.68
2022-12-27T03:42:49.946Z,7.61
2022-12-27T03:43:49.933Z,7.63
2022-12-27T03:44:49.932Z,7.71
2022-12-27T03:45:49.928Z,7.58
2022-12-27T03:46:49.924Z,7.68
2022-12-27T03:47:49.925Z,7.53
2022-12-27T03:48:49.940Z,7.50
2022-12-27T03:49:49.915Z,7.50
2022-12-27T03:50:49.911Z,7.53
2022-12-27T03:51:49.900Z,7.49
2022-12-27T03:52:49.900Z,7.46
2022-12-27T03:53:49.901Z,7.50
2022-12-27T03:54:49.895Z,7.45
2022-12-27T03:55:49.885Z,7.42
2022-12-27T03:56:49.884Z,7.48
2022-12-27T03:57:49.873Z,7.53
2022-12-27T03:58:49.871Z,7.45
2022-12-27T03:59:49.868Z,7.48
2022-12-27T04:00:49.866Z,7.43
2022-12-27T04:01:49.952Z,7.45
2022-12-27T04:02:50.017Z,7.42
2022-12-27T04:03:49.854Z,7.40
2022-12-27T04:04:49.879Z,7.45
2022-12-27T04:05:49.844Z,7.55
2022-12-27T04:06:49.846Z,7.55
2022-12-27T04:07:49.829Z,7.50
2022-12-27T04:08:49.834Z,7.37
2022-12-27T04:09:49.830Z,7.40
2022-12-27T04:10:49.827Z,7.45
2022-12-27T04:11:49.834Z,7.49
2022-12-27T04:12:49.823Z,7.49
2022-12-27T04:13:49.806Z,7.46
2022-12-27T04:14:49.804Z,7.55
2022-12-27T04:15:49.837Z,7.72
2022-12-27T04:16:49.792Z,7.52
2022-12-27T04:17:49.789Z,7.40
2022-12-27T04:18:49.791Z,7.45
2022-12-27T04:19:49.784Z,7.50
2022-12-27T04:20:49.802Z,7.43
2022-12-27T04:21:49.774Z,7.48
2022-12-27T04:22:49.766Z,7.40
2022-12-27T04:23:49.765Z,7.48
2022-12-27T04:24:49.760Z,7.42
2022-12-27T04:25:49.763Z,7.39
2022-12-27T04:26:49.753Z,7.42
2022-12-27T04:27:49.747Z,7.42
2022-12-27T04:28:49.748Z,7.39
2022-12-27T04:29:49.735Z,7.43
2022-12-27T04:30:49.779Z,7.42
2022-12-27T04:31:49.725Z,7.46
2022-12-27T04:32:49.725Z,7.42
2022-12-27T04:33:49.717Z,7.46
2022-12-27T04:34:49.723Z,7.40
2022-12-27T04:35:49.709Z,7.52
2022-12-27T04:36:49.749Z,7.46
2022-12-27T04:37:49.696Z,7.37
2022-12-27T04:38:49.710Z,7.42
2022-12-27T04:39:49.696Z,7.49
2022-12-27T04:40:49.689Z,7.46
2022-12-27T04:41:49.684Z,7.48
2022-12-27T04:42:49.704Z,7.48
2022-12-27T04:43:49.670Z,7.43
2022-12-27T04:44:49.678Z,7.43
2022-12-27T04:45:49.666Z,7.50
2022-12-27T04:46:49.733Z,7.45
2022-12-27T04:47:49.655Z,7.46
2022-12-27T04:48:49.652Z,7.50
2022-12-27T04:49:49.644Z,7.53
2022-12-27T04:50:49.645Z,7.40
2022-12-27T04:51:49.638Z,7.43
2022-12-27T04:52:49.657Z,7.42
2022-12-27T04:53:49.631Z,7.35
2022-12-27T04:54:49.626Z,7.39
2022-12-27T04:55:49.619Z,7.35
2022-12-27T04:56:49.617Z,7.48
2022-12-27T04:57:49.611Z,7.40
2022-12-27T04:58:49.608Z,7.49
2022-12-27T04:59:49.608Z,7.57
2022-12-27T05:00:49.663Z,7.48
2022-12-27T05:01:49.730Z,7.43
2022-12-27T05:02:49.836Z,7.45
2022-12-27T05:03:49.637Z,7.45
2022-12-27T05:04:49.585Z,7.48
2022-12-27T05:05:49.589Z,7.49
2022-12-27T05:06:49.577Z,7.48
2022-12-27T05:07:49.561Z,7.46
2022-12-27T05:08:49.691Z,7.35
2022-12-27T05:09:49.555Z,7.37
2022-12-27T05:10:49.562Z,7.40
2022-12-27T05:11:49.546Z,7.39
2022-12-27T05:12:49.544Z,7.50
2022-12-27T05:13:49.538Z,7.49
2022-12-27T05:14:49.536Z,7.49
2022-12-27T05:15:49.641Z,7.50
2022-12-27T05:16:49.536Z,7.40
2022-12-27T05:17:49.520Z,7.53
2022-12-27T05:18:49.517Z,7.55
2022-12-27T05:19:49.519Z,7.43
2022-12-27T05:20:49.564Z,7.50
2022-12-27T05:21:49.499Z,7.43
2022-12-27T05:22:49.502Z,7.39
2022-12-27T05:23:49.527Z,7.35
2022-12-27T05:24:49.506Z,7.42
2022-12-27T05:25:49.494Z,7.45
2022-12-27T05:26:49.476Z,7.40
2022-12-27T05:27:49.489Z,7.39
2022-12-27T05:28:49.470Z,7.37
2022-12-27T05:29:49.474Z,7.40
2022-12-27T05:30:49.465Z,7.49
2022-12-27T05:31:49.512Z,7.49
2022-12-27T05:32:49.453Z,7.40
2022-12-27T05:33:49.456Z,7.45
2022-12-27T05:34:49.441Z,7.43
2022-12-27T05:35:49.461Z,7.53
2022-12-27T05:36:49.432Z,7.48
2022-12-27T05:37:54.741Z,7.45
2022-12-27T05:38:49.428Z,7.40
2022-12-27T05:39:49.422Z,7.42
2022-12-27T05:40:49.439Z,7.42
2022-12-27T05:41:49.416Z,7.40
2022-12-27T05:42:49.408Z,7.43
2022-12-27T05:43:49.408Z,7.46
2022-12-27T05:44:49.397Z,7.48
2022-12-27T05:45:49.403Z,7.52
2022-12-27T05:46:49.468Z,7.57
2022-12-27T05:47:49.387Z,7.61
2022-12-27T05:48:49.403Z,7.60
2022-12-27T05:49:49.382Z,7.68
2022-12-27T05:50:49.373Z,7.57
2022-12-27T05:51:49.366Z,7.71
2022-12-27T05:52:49.365Z,7.58
2022-12-27T05:53:49.363Z,7.49
2022-12-27T05:54:49.359Z,7.53
2022-12-27T05:55:49.353Z,7.49
2022-12-27T05:56:49.367Z,7.48
2022-12-27T05:57:49.341Z,7.45
2022-12-27T05:58:49.335Z,7.34
2022-12-27T05:59:49.331Z,7.25
2022-12-27T06:00:49.325Z,7.35
2022-12-27T06:01:49.555Z,7.42
2022-12-27T06:02:49.460Z,7.34
2022-12-27T06:03:49.318Z,7.25
2022-12-27T06:04:49.306Z,7.35
2022-12-27T06:05:49.305Z,7.46
2022-12-27T06:06:49.301Z,7.32
2022-12-27T06:07:49.308Z,7.46
2022-12-27T06:08:49.290Z,7.27
2022-12-27T06:09:49.290Z,7.37
2022-12-27T06:10:49.277Z,7.35
2022-12-27T06:11:49.280Z,7.35
2022-12-27T06:12:49.294Z,7.42
2022-12-27T06:13:49.275Z,7.30
2022-12-27T06:14:49.260Z,7.27
2022-12-27T06:15:49.263Z,7.25
2022-12-27T06:16:49.318Z,7.17
2022-12-27T06:17:49.250Z,7.21
2022-12-27T06:18:49.258Z,7.10
2022-12-27T06:19:53.783Z,7.10
2022-12-27T06:20:49.234Z,7.15
2022-12-27T06:21:49.248Z,7.13
2022-12-27T06:22:49.226Z,7.17
2022-12-27T06:23:49.235Z,7.12
2022-12-27T06:24:49.221Z,7.12
2022-12-27T06:25:49.219Z,7.15
2022-12-27T06:26:49.215Z,7.13
2022-12-27T06:27:49.207Z,7.02
2022-12-27T06:28:49.224Z,7.02
2022-12-27T06:29:49.200Z,6.97
2022-12-27T06:30:49.197Z,7.03
2022-12-27T06:31:49.241Z,6.88
2022-12-27T06:32:49.183Z,6.95
2022-12-27T06:33:49.181Z,7.02
2022-12-27T06:34:49.179Z,6.99
2022-12-27T06:35:49.175Z,7.03
2022-12-27T06:36:49.159Z,7.16
2022-12-27T06:37:49.161Z,7.10
2022-12-27T06:38:49.166Z,7.17
2022-12-27T06:39:49.153Z,7.13
2022-12-27T06:40:49.145Z,7.12
2022-12-27T06:41:49.139Z,7.23
2022-12-27T06:42:49.136Z,7.15
2022-12-27T06:43:49.131Z,7.21
2022-12-27T06:44:49.187Z,7.37
2022-12-27T06:45:49.170Z,7.25
2022-12-27T06:46:49.115Z,7.16
2022-12-27T06:47:49.112Z,7.13
2022-12-27T06:48:49.103Z,7.13
2022-12-27T06:49:49.102Z,7.16
2022-12-27T06:50:49.094Z,7.23
2022-12-27T06:51:52.740Z,6.99
2022-12-27T06:52:49.083Z,7.03
2022-12-27T06:53:49.090Z,7.05
2022-12-27T06:54:49.073Z,6.99
2022-12-27T06:55:49.075Z,6.91
2022-12-27T06:56:49.067Z,6.94
2022-12-27T06:57:49.064Z,6.99
2022-12-27T06:58:49.061Z,7.15
2022-12-27T06:59:53.802Z,7.05
2022-12-27T07:00:49.115Z,6.98
2022-12-27T07:01:49.145Z,7.13
2022-12-27T07:02:49.172Z,7.10
2022-12-27T07:03:49.036Z,7.15
2022-12-27T07:04:49.031Z,7.07
2022-12-27T07:05:49.029Z,7.07
2022-12-27T07:06:49.016Z,7.24
2022-12-27T07:07:49.015Z,7.21
2022-12-27T07:08:49.015Z,7.20
2022-12-27T07:09:49.007Z,7.10
2022-12-27T07:10:49.014Z,7.12
2022-12-27T07:11:48.995Z,7.25
2022-12-27T07:12:48.995Z,7.34
2022-12-27T07:13:48.993Z,7.35
2022-12-27T07:14:48.979Z,7.32
2022-12-27T07:15:48.983Z,7.42
2022-12-27T07:16:49.070Z,7.31
2022-12-27T07:17:48.971Z,7.25
2022-12-27T07:18:50.102Z,7.28
2022-12-27T07:19:48.961Z,7.20
2022-12-27T07:20:48.967Z,7.24
2022-12-27T07:21:48.950Z,7.23
2022-12-27T07:22:48.940Z,7.23
2022-12-27T07:23:48.954Z,7.27
2022-12-27T07:24:48.928Z,7.17
2022-12-27T07:25:48.933Z,7.16
2022-12-27T07:26:48.923Z,7.15
2022-12-27T07:27:48.925Z,7.23
2022-12-27T07:28:48.935Z,7.28
2022-12-27T07:29:48.908Z,7.28
2022-12-27T07:30:48.902Z,7.34
2022-12-27T07:31:48.940Z,7.27
2022-12-27T07:32:48.923Z,7.32
2022-12-27T07:33:48.918Z,7.39
2022-12-27T07:34:48.883Z,7.32
2022-12-27T07:35:48.895Z,7.42
2022-12-27T07:36:48.873Z,7.46
2022-12-27T07:37:48.883Z,7.45
2022-12-27T07:38:48.873Z,7.50
2022-12-27T07:39:48.863Z,7.49
2022-12-27T07:40:48.854Z,7.42
2022-12-27T07:41:48.850Z,7.42
2022-12-27T07:42:48.846Z,7.49
2022-12-27T07:43:48.841Z,7.50
2022-12-27T07:44:48.833Z,7.61
2022-12-27T07:45:48.901Z,7.60
2022-12-27T07:46:48.835Z,7.55
2022-12-27T07:47:48.823Z,7.74
2022-12-27T07:48:48.854Z,7.75
2022-12-27T07:49:48.812Z,7.63
2022-12-27T07:50:48.802Z,7.67
2022-12-27T07:51:48.802Z,7.60
2022-12-27T07:52:48.797Z,7.50
2022-12-27T07:53:48.810Z,7.68
2022-12-27T07:54:48.785Z,7.60
2022-12-27T07:55:48.777Z,7.57
2022-12-27T07:56:48.784Z,7.77
2022-12-27T07:57:48.772Z,7.83
2022-12-27T07:58:48.769Z,7.86
2022-12-27T07:59:48.771Z,7.82
2022-12-27T08:00:48.770Z,7.79
2022-12-27T08:01:48.849Z,7.95
2022-12-27T08:02:48.951Z,7.92
2022-12-27T08:03:48.750Z,7.85
2022-12-27T08:04:48.773Z,7.92
2022-12-27T08:05:48.766Z,7.93
2022-12-27T08:06:48.727Z,8.11
2022-12-27T08:07:48.734Z,8.10
2022-12-27T08:08:48.723Z,8.11
2022-12-27T08:09:48.727Z,8.10
2022-12-27T08:10:48.708Z,8.08
2022-12-27T08:11:48.711Z,8.00
2022-12-27T08:12:48.713Z,8.00
2022-12-27T08:13:48.704Z,8.15
2022-12-27T08:14:48.688Z,8.10
2022-12-27T08:15:48.697Z,8.11
2022-12-27T08:16:48.752Z,8.11
2022-12-27T08:17:48.678Z,8.23
2022-12-27T08:18:48.682Z,8.08
2022-12-27T08:19:48.678Z,8.12
2022-12-27T08:20:48.690Z,8.11
2022-12-27T08:21:48.701Z,8.12
2022-12-27T08:22:48.657Z,8.12
2022-12-27T08:23:48.657Z,8.07
2022-12-27T08:24:48.646Z,8.04
2022-12-27T08:25:49.237Z,8.12
2022-12-27T08:26:48.641Z,8.22
2022-12-27T08:27:48.634Z,8.02
2022-12-27T08:28:48.629Z,8.12
2022-12-27T08:29:48.627Z,7.98
2022-12-27T08:30:48.769Z,7.93
2022-12-27T08:31:48.617Z,7.80
2022-12-27T08:32:48.614Z,7.92
2022-12-27T08:33:51.240Z,7.97
2022-12-27T08:34:48.606Z,7.95
2022-12-27T08:35:53.616Z,8.05
2022-12-27T08:36:56.537Z,7.90
2022-12-27T08:37:48.600Z,7.98
2022-12-27T08:38:48.660Z,7.92
2022-12-27T08:39:48.590Z,8.11
2022-12-27T08:40:48.658Z,8.00
2022-12-27T08:41:48.586Z,7.97
2022-12-27T08:42:48.564Z,8.01
2022-12-27T08:43:48.572Z,8.04
2022-12-27T08:44:48.561Z,8.02
2022-12-27T08:45:48.630Z,8.00
2022-12-27T08:46:48.557Z,8.01
2022-12-27T08:47:48.546Z,8.10
2022-12-27T08:48:48.544Z,8.12
2022-12-27T08:49:48.538Z,8.08
2022-12-27T08:50:48.530Z,8.04
2022-12-27T08:51:48.535Z,8.08
2022-12-27T08:52:48.552Z,8.15
2022-12-27T08:53:48.518Z,8.02
2022-12-27T08:54:48.514Z,7.97
2022-12-27T08:55:48.520Z,8.16
2022-12-27T08:56:48.512Z,8.00
2022-12-27T08:57:48.504Z,8.08
2022-12-27T08:58:48.501Z,8.04
2022-12-27T08:59:48.490Z,8.12
2022-12-27T09:00:48.484Z,8.26
2022-12-27T09:01:48.577Z,8.30
2022-12-27T09:02:48.491Z,8.33
2022-12-27T09:03:48.493Z,8.36
2022-12-27T09:04:48.476Z,8.36
2022-12-27T09:05:48.471Z,8.41
2022-12-27T09:06:48.463Z,8.40
2022-12-27T09:07:48.463Z,8.41
2022-12-27T09:08:48.480Z,8.48
2022-12-27T09:09:48.451Z,8.53
2022-12-27T09:10:48.446Z,8.37
2022-12-27T09:11:48.446Z,8.44
2022-12-27T09:12:48.443Z,8.41
2022-12-27T09:13:48.440Z,8.50
2022-12-27T09:14:48.427Z,8.44
2022-12-27T09:15:48.451Z,8.40
2022-12-27T09:16:48.428Z,8.30
2022-12-27T09:17:48.415Z,8.43
2022-12-27T09:18:48.419Z,8.41
2022-12-27T09:19:48.418Z,8.47
2022-12-27T09:20:48.404Z,8.61
2022-12-27T09:21:48.404Z,8.61
2022-12-27T09:22:48.410Z,8.45
2022-12-27T09:23:48.432Z,8.44
2022-12-27T09:24:48.402Z,8.38
2022-12-27T09:25:48.435Z,8.40
2022-12-27T09:26:48.391Z,8.45
2022-12-27T09:27:48.379Z,8.44
2022-12-27T09:28:48.370Z,8.45
2022-12-27T09:29:48.695Z,8.41
2022-12-27T09:30:48.385Z,8.40
2022-12-27T09:31:48.359Z,8.50
2022-12-27T09:32:48.351Z,8.65
2022-12-27T09:33:48.367Z,8.61
2022-12-27T09:34:48.347Z,8.53
2022-12-27T09:35:48.337Z,8.59
2022-12-27T09:36:48.333Z,8.58
2022-12-27T09:37:48.335Z,8.37
2022-12-27T09:38:48.324Z,8.58
2022-12-27T09:39:48.336Z,8.70
2022-12-27T09:40:48.399Z,8.80
2022-12-27T09:43:01.913Z,9.20
2022-12-27T09:43:48.301Z,9.61
2022-12-27T09:44:48.302Z,9.97
2022-12-27T09:45:48.318Z,10.27
2022-12-27T09:46:48.297Z,10.51
2022-12-27T09:47:48.286Z,10.99
2022-12-27T09:48:48.284Z,11.00
2022-12-27T09:49:48.304Z,10.76
2022-12-27T09:50:48.281Z,10.56
2022-12-27T09:51:48.277Z,10.44
2022-12-27T09:52:48.264Z,10.40
2022-12-27T09:53:48.268Z,10.91
2022-12-27T09:54:48.260Z,11.70
2022-12-27T09:55:48.255Z,12.57
2022-12-27T09:57:18.389Z,13.15
2022-12-27T09:57:48.252Z,13.25
2022-12-27T09:58:48.273Z,12.93
2022-12-27T09:59:48.236Z,12.31
2022-12-27T10:00:48.244Z,11.96
2022-12-27T10:01:48.299Z,11.80
2022-12-27T10:02:48.350Z,11.36
2022-12-27T10:03:48.228Z,11.32
2022-12-27T10:05:19.098Z,11.15
2022-12-27T10:05:53.184Z,10.89
2022-12-27T10:06:48.223Z,10.61
2022-12-27T10:07:48.216Z,10.60
2022-12-27T10:08:48.209Z,10.53
2022-12-27T10:09:48.205Z,10.51
2022-12-27T10:10:48.204Z,10.56
2022-12-27T10:11:48.228Z,10.52
2022-12-27T10:12:48.215Z,10.52
2022-12-27T10:13:48.194Z,10.40
2022-12-27T10:14:48.187Z,10.47
2022-12-27T10:15:48.308Z,10.45
2022-12-27T10:16:48.181Z,10.42
2022-12-27T10:17:53.075Z,10.45
2022-12-27T10:18:48.178Z,10.45
2022-12-27T10:19:48.168Z,10.52
2022-12-27T10:20:48.178Z,10.59
2022-12-27T10:21:48.160Z,10.56
2022-12-27T10:22:48.164Z,10.41
2022-12-27T10:23:48.154Z,10.36
2022-12-27T10:24:48.159Z,10.27
2022-12-27T10:25:48.148Z,10.42
2022-12-27T10:26:48.173Z,10.53
2022-12-27T10:27:48.148Z,10.44
2022-12-27T10:28:49.609Z,10.38
2022-12-27T10:29:48.140Z,10.23
2022-12-27T10:30:48.133Z,10.14
2022-12-27T10:31:48.128Z,10.08
2022-12-27T10:32:48.141Z,10.22
2022-12-27T10:33:48.124Z,10.22
2022-12-27T10:34:48.124Z,10.23
2022-12-27T10:35:48.120Z,10.29
2022-12-27T10:36:48.123Z,10.23
2022-12-27T10:37:48.111Z,10.33
2022-12-27T10:38:48.112Z,10.32
2022-12-27T10:39:48.112Z,10.44
2022-12-27T10:40:48.104Z,10.71
2022-12-27T10:41:48.097Z,10.85
2022-12-27T10:42:48.108Z,11.22
2022-12-27T10:43:48.098Z,11.61
2022-12-27T10:44:48.115Z,11.57
2022-12-27T10:45:48.143Z,11.76
2022-12-27T10:46:48.135Z,11.72
2022-12-27T10:47:48.080Z,11.72
2022-12-27T10:49:19.407Z,11.46
2022-12-27T10:49:48.073Z,11.39
2022-12-27T10:50:48.088Z,11.32
2022-12-27T10:51:48.072Z,11.21
2022-12-27T10:52:52.648Z,10.89
2022-12-27T10:53:48.065Z,11.21
2022-12-27T10:54:48.063Z,11.11
2022-12-27T10:55:48.056Z,10.94
2022-12-27T10:56:48.063Z,10.81
2022-12-27T10:57:48.060Z,10.76
2022-12-27T10:58:52.936Z,10.78
2022-12-27T10:59:48.049Z,10.79
2022-12-27T11:00:48.110Z,10.78
2022-12-27T11:01:48.192Z,10.76
2022-12-27T11:02:48.120Z,10.82
2022-12-27T11:03:48.036Z,10.88
2022-12-27T11:04:48.032Z,11.02
2022-12-27T11:05:48.029Z,11.17
2022-12-27T11:06:48.049Z,11.06
2022-12-27T11:07:48.030Z,10.99
2022-12-27T11:08:48.024Z,10.86
2022-12-27T11:09:51.080Z,10.86
2022-12-27T11:10:48.027Z,10.81
2022-12-27T11:11:48.008Z,10.70
2022-12-27T11:12:48.010Z,10.68
2022-12-27T11:13:48.012Z,10.40
2022-12-27T11:14:48.007Z,10.56
2022-12-27T11:15:48.062Z,10.56
2022-12-27T11:16:48.073Z,10.70
2022-12-27T11:17:48.009Z,10.61
2022-12-27T11:18:47.999Z,10.55
2022-12-27T11:19:47.992Z,10.61
2022-12-27T11:20:48.008Z,10.61
2022-12-27T11:21:47.990Z,10.45
2022-12-27T11:22:48.001Z,10.63
2022-12-27T11:23:47.982Z,10.52
2022-12-27T11:24:47.999Z,10.60
2022-12-27T11:25:47.972Z,10.59
2022-12-27T11:26:53.498Z,10.40
2022-12-27T11:27:47.975Z,10.38
2022-12-27T11:28:47.971Z,10.41
2022-12-27T11:29:47.961Z,10.41
2022-12-27T11:30:47.967Z,10.44
2022-12-27T11:31:48.037Z,10.38
2022-12-27T11:32:47.978Z,10.18
2022-12-27T11:33:47.952Z,10.40
2022-12-27T11:34:47.952Z,10.30
2022-12-27T11:35:47.948Z,10.29
2022-12-27T11:36:47.944Z,10.41
2022-12-27T11:37:47.942Z,10.29
2022-12-27T11:38:47.938Z,10.42
2022-12-27T11:39:47.938Z,10.36
2022-12-27T11:40:47.936Z,10.40
2022-12-27T11:41:47.926Z,10.34
2022-12-27T11:42:47.929Z,10.33
2022-12-27T11:43:47.926Z,10.18
2022-12-27T11:44:47.922Z,10.17
2022-12-27T11:45:47.920Z,10.34
2022-12-27T11:46:48.009Z,10.44
2022-12-27T11:47:47.910Z,10.38
2022-12-27T11:48:47.935Z,10.29
2022-12-27T11:49:47.910Z,10.36
2022-12-27T11:50:47.906Z,10.32
2022-12-27T11:51:47.899Z,10.26
2022-12-27T11:52:47.899Z,10.38
2022-12-27T11:53:54.221Z,10.42
2022-12-27T11:54:47.900Z,10.44
2022-12-27T11:55:47.886Z,10.42
2022-12-27T11:56:47.896Z,10.30
2022-12-27T11:57:47.897Z,10.45
2022-12-27T11:58:47.888Z,10.56
2022-12-27T11:59:47.911Z,10.41
2022-12-27T12:00:47.880Z,10.45
2022-12-27T12:01:47.960Z,10.38
2022-12-27T12:02:47.968Z,10.45
2022-12-27T12:03:47.948Z,10.61
2022-12-27T12:04:47.891Z,10.63
2022-12-27T12:05:47.863Z,10.61
2022-12-27T12:06:47.867Z,10.55
2022-12-27T12:07:47.858Z,10.60
2022-12-27T12:08:47.856Z,10.36
2022-12-27T12:09:47.855Z,10.44
2022-12-27T12:10:47.845Z,10.45
2022-12-27T12:11:54.449Z,10.48
2022-12-27T12:12:47.849Z,10.36
2022-12-27T12:13:47.837Z,10.34
2022-12-27T12:14:47.841Z,10.32
2022-12-27T12:15:47.836Z,10.33
2022-12-27T12:16:47.911Z,10.42
2022-12-27T12:17:47.847Z,10.41
2022-12-27T12:18:47.828Z,10.34
2022-12-27T12:19:47.836Z,10.40
2022-12-27T12:20:50.927Z,10.38
2022-12-27T12:21:47.818Z,10.47
2022-12-27T12:22:47.822Z,10.44
2022-12-27T12:23:47.808Z,10.60
2022-12-27T12:24:47.811Z,10.38
2022-12-27T12:25:47.807Z,10.32
2022-12-27T12:26:51.586Z,10.29
2022-12-27T12:27:47.799Z,10.34
2022-12-27T12:28:58.318Z,10.41
2022-12-27T12:29:47.793Z,10.41
2022-12-27T12:30:47.798Z,10.40
2022-12-27T12:31:47.854Z,10.33
2022-12-27T12:32:47.785Z,10.36
2022-12-27T12:33:47.781Z,10.41
2022-12-27T12:34:47.781Z,10.45
2022-12-27T12:35:47.773Z,10.47
2022-12-27T12:36:52.318Z,10.42
2022-12-27T12:37:47.779Z,10.45
2022-12-27T12:38:47.770Z,10.36
2022-12-27T12:39:47.766Z,10.42
2022-12-27T12:40:47.766Z,10.30
2022-12-27T12:41:47.771Z,10.26
2022-12-27T12:42:47.760Z,10.27
2022-12-27T12:43:47.750Z,10.34
2022-12-27T12:44:47.748Z,10.34
2022-12-27T12:45:47.797Z,10.42
2022-12-27T12:46:47.746Z,10.51
2022-12-27T12:47:47.735Z,10.60
2022-12-27T12:48:47.745Z,10.59
2022-12-27T12:49:47.733Z,10.48
2022-12-27T12:50:47.736Z,10.40
2022-12-27T12:51:47.731Z,10.59
2022-12-27T12:52:47.754Z,10.59
2022-12-27T12:53:47.728Z,10.56
2022-12-27T12:54:47.722Z,10.55
2022-12-27T12:55:47.717Z,10.64
2022-12-27T12:56:47.727Z,10.76
2022-12-27T12:57:47.711Z,10.70
2022-12-27T12:58:47.733Z,10.88
2022-12-27T12:59:47.706Z,10.51
2022-12-27T13:00:47.748Z,10.52
2022-12-27T13:01:50.937Z,10.40
2022-12-27T13:02:47.805Z,10.44
2022-12-27T13:03:47.694Z,10.44
2022-12-27T13:04:47.698Z,10.44
2022-12-27T13:05:47.689Z,10.52
2022-12-27T13:06:47.684Z,10.66
2022-12-27T13:07:47.685Z,10.71
2022-12-27T13:08:47.706Z,10.84
2022-12-27T13:09:47.680Z,10.64
2022-12-27T13:10:47.678Z,10.73
2022-12-27T13:11:47.671Z,10.84